sensor_id;sensor_type;location;lat;lon;timestamp;pressure;altitude;pressure_sealevel;temperature;humidity
44926;BME280;30662;51.210;7.656;2023-07-13T00:00:11;152927.66;;;16.54;76.63
44926;BME280;30662;51.210;7.656;2023-07-13T00:02:38;152921.31;;;16.51;76.41
44926;BME280;30662;51.210;7.656;2023-07-13T00:05:06;152866.66;;;16.30;77.94
44926;BME280;30662;51.210;7.656;2023-07-13T00:07:33;152873.00;;;16.32;77.58
44926;BME280;30662;51.210;7.656;2023-07-13T00:10:01;152875.53;;;16.33;77.46
44926;BME280;30662;51.210;7.656;2023-07-13T00:12:33;152911.13;;;16.47;76.75
44926;BME280;30662;51.210;7.656;2023-07-13T00:15:06;152932.72;;;16.56;76.21
44926;BME280;30662;51.210;7.656;2023-07-13T00:17:33;152879.34;;;16.35;76.58
44926;BME280;30662;51.210;7.656;2023-07-13T00:20:00;152843.75;;;16.20;77.91
44926;BME280;30662;51.210;7.656;2023-07-13T00:22:27;152857.72;;;16.26;77.27
44926;BME280;30662;51.210;7.656;2023-07-13T00:24:54;152861.53;;;16.27;77.29
44926;BME280;30662;51.210;7.656;2023-07-13T00:27:23;152867.91;;;16.30;76.62
44926;BME280;30662;51.210;7.656;2023-07-13T00:29:50;152866.66;;;16.30;77.30
44926;BME280;30662;51.210;7.656;2023-07-13T00:32:16;152819.63;;;16.11;77.44
44926;BME280;30662;51.210;7.656;2023-07-13T00:34:43;152782.75;;;15.96;78.58
44926;BME280;30662;51.210;7.656;2023-07-13T00:37:10;152795.47;;;16.01;79.06
44926;BME280;30662;51.210;7.656;2023-07-13T00:39:37;152803.09;;;16.04;78.77
44926;BME280;30662;51.210;7.656;2023-07-13T00:42:04;152808.16;;;16.06;78.35
44926;BME280;30662;51.210;7.656;2023-07-13T00:44:31;152810.69;;;16.07;77.97
44926;BME280;30662;51.210;7.656;2023-07-13T00:46:58;152808.16;;;16.06;78.31
44926;BME280;30662;51.210;7.656;2023-07-13T00:49:27;152869.19;;;16.31;77.21
44926;BME280;30662;51.210;7.656;2023-07-13T00:52:06;152775.09;;;15.93;77.83
44926;BME280;30662;51.210;7.656;2023-07-13T00:54:39;152756.03;;;15.85;78.50
44926;BME280;30662;51.210;7.656;2023-07-13T00:57:09;152798.00;;;16.02;78.18
44926;BME280;30662;51.210;7.656;2023-07-13T00:59:41;152823.41;;;16.12;77.92
44926;BME280;30662;51.210;7.656;2023-07-13T01:02:09;152749.72;;;15.83;78.31
44926;BME280;30662;51.210;7.656;2023-07-13T01:04:36;152739.53;;;15.79;79.13
44926;BME280;30662;51.210;7.656;2023-07-13T01:07:06;152720.47;;;15.71;79.36
44926;BME280;30662;51.210;7.656;2023-07-13T01:09:33;152715.41;;;15.69;79.62
44926;BME280;30662;51.210;7.656;2023-07-13T01:12:00;152723.06;;;15.72;79.72
44926;BME280;30662;51.210;7.656;2023-07-13T01:14:28;152686.16;;;15.57;80.52
44926;BME280;30662;51.210;7.656;2023-07-13T01:16:55;152668.38;;;15.50;80.57
44926;BME280;30662;51.210;7.656;2023-07-13T01:22:11;152667.06;;;15.50;81.62
44926;BME280;30662;51.210;7.656;2023-07-13T01:24:40;152663.25;;;15.48;81.13
44926;BME280;30662;51.210;7.656;2023-07-13T01:27:08;152634.06;;;15.36;81.92
44926;BME280;30662;51.210;7.656;2023-07-13T01:29:37;152654.41;;;15.44;81.80
44926;BME280;30662;51.210;7.656;2023-07-13T01:32:12;152597.25;;;15.22;82.76
44926;BME280;30662;51.210;7.656;2023-07-13T01:34:39;152615.03;;;15.29;82.64
44926;BME280;30662;51.210;7.656;2023-07-13T01:37:10;152604.84;;;15.25;82.61
44926;BME280;30662;51.210;7.656;2023-07-13T01:39:36;152593.41;;;15.20;83.31
44926;BME280;30662;51.210;7.656;2023-07-13T01:42:04;152556.56;;;15.05;84.00
44926;BME280;30662;51.210;7.656;2023-07-13T01:44:30;152535.00;;;14.97;84.83
44926;BME280;30662;51.210;7.656;2023-07-13T01:46:57;152531.19;;;14.95;85.13
44926;BME280;30662;51.210;7.656;2023-07-13T01:49:24;152560.41;;;15.07;84.05
44926;BME280;30662;51.210;7.656;2023-07-13T01:51:51;152557.84;;;15.06;84.91
44926;BME280;30662;51.210;7.656;2023-07-13T01:54:17;152531.19;;;14.95;85.15
44926;BME280;30662;51.210;7.656;2023-07-13T01:56:44;152557.84;;;15.06;84.65
44926;BME280;30662;51.210;7.656;2023-07-13T01:59:10;152565.47;;;15.09;84.03
44926;BME280;30662;51.210;7.656;2023-07-13T02:01:37;152508.34;;;14.86;85.44
44926;BME280;30662;51.210;7.656;2023-07-13T02:04:04;152523.59;;;14.92;85.83
44926;BME280;30662;51.210;7.656;2023-07-13T02:06:30;152510.88;;;14.87;85.61
44926;BME280;30662;51.210;7.656;2023-07-13T02:08:57;152500.69;;;14.83;86.41
44926;BME280;30662;51.210;7.656;2023-07-13T02:11:24;152498.16;;;14.82;86.40
44926;BME280;30662;51.210;7.656;2023-07-13T02:13:51;152526.13;;;14.93;86.13
44926;BME280;30662;51.210;7.656;2023-07-13T02:16:18;152493.09;;;14.80;85.92
44926;BME280;30662;51.210;7.656;2023-07-13T02:18:44;152509.63;;;14.86;85.57
44926;BME280;30662;51.210;7.656;2023-07-13T02:21:11;152543.91;;;15.00;85.20
44926;BME280;30662;51.210;7.656;2023-07-13T02:23:38;152561.69;;;15.07;84.53
44926;BME280;30662;51.210;7.656;2023-07-13T02:26:04;152531.19;;;14.95;84.68
44926;BME280;30662;51.210;7.656;2023-07-13T02:28:31;152535.00;;;14.97;84.42
44926;BME280;30662;51.210;7.656;2023-07-13T02:31:05;152560.41;;;15.07;83.85
44926;BME280;30662;51.210;7.656;2023-07-13T02:33:32;152481.66;;;14.75;85.46
44926;BME280;30662;51.210;7.656;2023-07-13T02:35:58;152465.16;;;14.69;86.58
44926;BME280;30662;51.210;7.656;2023-07-13T02:38:25;152504.50;;;14.84;85.96
44926;BME280;30662;51.210;7.656;2023-07-13T02:40:52;152531.19;;;14.95;85.37
44926;BME280;30662;51.210;7.656;2023-07-13T02:43:18;152526.13;;;14.93;85.75
44926;BME280;30662;51.210;7.656;2023-07-13T02:45:45;152545.16;;;15.01;85.12
44926;BME280;30662;51.210;7.656;2023-07-13T02:48:13;152491.84;;;14.79;86.33
44926;BME280;30662;51.210;7.656;2023-07-13T02:50:40;152428.34;;;14.54;87.94
44926;BME280;30662;51.210;7.656;2023-07-13T02:53:14;152466.41;;;14.69;87.84
44926;BME280;30662;51.210;7.656;2023-07-13T02:55:41;152465.16;;;14.69;87.83
44926;BME280;30662;51.210;7.656;2023-07-13T02:58:13;152466.41;;;14.69;87.94
44926;BME280;30662;51.210;7.656;2023-07-13T03:00:44;152472.78;;;14.72;87.99
44926;BME280;30662;51.210;7.656;2023-07-13T03:03:13;152495.63;;;14.81;87.74
44926;BME280;30662;51.210;7.656;2023-07-13T03:05:42;152505.81;;;14.85;87.24
44926;BME280;30662;51.210;7.656;2023-07-13T03:08:10;152467.69;;;14.70;88.07
44926;BME280;30662;51.210;7.656;2023-07-13T03:10:37;152416.94;;;14.49;89.84
44926;BME280;30662;51.210;7.656;2023-07-13T03:13:04;152406.72;;;14.45;90.42
44926;BME280;30662;51.210;7.656;2023-07-13T03:15:31;152401.66;;;14.43;90.23
44926;BME280;30662;51.210;7.656;2023-07-13T03:17:58;152388.94;;;14.38;91.37
44926;BME280;30662;51.210;7.656;2023-07-13T03:20:24;152423.28;;;14.52;90.44
44926;BME280;30662;51.210;7.656;2023-07-13T03:22:51;152430.88;;;14.55;90.10
44926;BME280;30662;51.210;7.656;2023-07-13T03:25:18;152429.59;;;14.54;90.32
44926;BME280;30662;51.210;7.656;2023-07-13T03:27:44;152429.59;;;14.54;89.99
44926;BME280;30662;51.210;7.656;2023-07-13T03:30:11;152355.94;;;14.25;92.06
44926;BME280;30662;51.210;7.656;2023-07-13T03:32:38;152388.94;;;14.38;91.49
44926;BME280;30662;51.210;7.656;2023-07-13T03:35:05;152419.47;;;14.50;90.71
44926;BME280;30662;51.210;7.656;2023-07-13T03:37:31;152428.34;;;14.54;91.00
44926;BME280;30662;51.210;7.656;2023-07-13T03:39:58;152397.84;;;14.42;92.23
44926;BME280;30662;51.210;7.656;2023-07-13T03:42:24;152349.59;;;14.22;93.63
44926;BME280;30662;51.210;7.656;2023-07-13T03:44:52;152371.16;;;14.31;93.55
44926;BME280;30662;51.210;7.656;2023-07-13T03:47:19;152357.19;;;14.25;94.42
44926;BME280;30662;51.210;7.656;2023-07-13T03:49:45;152380.06;;;14.34;93.93
44926;BME280;30662;51.210;7.656;2023-07-13T03:52:12;152405.44;;;14.45;94.21
44926;BME280;30662;51.210;7.656;2023-07-13T03:54:39;152359.72;;;14.26;95.44
44926;BME280;30662;51.210;7.656;2023-07-13T03:57:06;152350.88;;;14.23;95.87
44926;BME280;30662;51.210;7.656;2023-07-13T03:59:32;152397.84;;;14.42;95.20
44926;BME280;30662;51.210;7.656;2023-07-13T04:02:01;152383.88;;;14.36;95.45
44926;BME280;30662;51.210;7.656;2023-07-13T04:04:28;152385.16;;;14.37;95.66
44926;BME280;30662;51.210;7.656;2023-07-13T04:06:54;152363.56;;;14.28;96.77
44926;BME280;30662;51.210;7.656;2023-07-13T04:09:21;152371.16;;;14.31;96.96
44926;BME280;30662;51.210;7.656;2023-07-13T04:11:47;152388.94;;;14.38;96.57
44926;BME280;30662;51.210;7.656;2023-07-13T04:14:14;152415.69;;;14.49;96.27
44926;BME280;30662;51.210;7.656;2023-07-13T04:16:41;152422.00;;;14.51;95.91
44926;BME280;30662;51.210;7.656;2023-07-13T04:19:09;152419.47;;;14.50;96.08
44926;BME280;30662;51.210;7.656;2023-07-13T04:21:36;152378.81;;;14.34;97.03
44926;BME280;30662;51.210;7.656;2023-07-13T04:24:03;152387.69;;;14.38;96.56
44926;BME280;30662;51.210;7.656;2023-07-13T04:26:30;152408.03;;;14.46;96.33
44926;BME280;30662;51.210;7.656;2023-07-13T04:28:57;152395.28;;;14.41;97.43
44926;BME280;30662;51.210;7.656;2023-07-13T04:31:23;152401.66;;;14.43;96.84
44926;BME280;30662;51.210;7.656;2023-07-13T04:33:50;152404.19;;;14.44;96.85
44926;BME280;30662;51.210;7.656;2023-07-13T04:36:17;152374.97;;;14.32;97.15
44926;BME280;30662;51.210;7.656;2023-07-13T04:38:44;152368.63;;;14.30;97.93
44926;BME280;30662;51.210;7.656;2023-07-13T04:41:11;152394.00;;;14.40;97.66
44926;BME280;30662;51.210;7.656;2023-07-13T04:43:38;152411.81;;;14.47;97.33
44926;BME280;30662;51.210;7.656;2023-07-13T04:46:10;152439.78;;;14.58;96.66
44926;BME280;30662;51.210;7.656;2023-07-13T04:48:38;152494.38;;;14.80;95.58
44926;BME280;30662;51.210;7.656;2023-07-13T04:51:06;152438.50;;;14.58;95.72
44926;BME280;30662;51.210;7.656;2023-07-13T04:53:33;152420.72;;;14.51;96.73
44926;BME280;30662;51.210;7.656;2023-07-13T04:56:01;152409.28;;;14.46;97.92
44926;BME280;30662;51.210;7.656;2023-07-13T04:58:28;152411.81;;;14.47;97.59
44926;BME280;30662;51.210;7.656;2023-07-13T05:01:00;152422.00;;;14.51;97.25
44926;BME280;30662;51.210;7.656;2023-07-13T05:03:28;152423.28;;;14.52;97.70
44926;BME280;30662;51.210;7.656;2023-07-13T05:05:57;152447.38;;;14.61;97.24
44926;BME280;30662;51.210;7.656;2023-07-13T05:08:24;152486.72;;;14.77;96.11
44926;BME280;30662;51.210;7.656;2023-07-13T05:10:51;152418.19;;;14.50;97.65
44926;BME280;30662;51.210;7.656;2023-07-13T05:13:19;152472.78;;;14.72;97.18
44926;BME280;30662;51.210;7.656;2023-07-13T05:15:48;152528.66;;;14.94;95.85
44926;BME280;30662;51.210;7.656;2023-07-13T05:18:25;152519.75;;;14.90;95.56
44926;BME280;30662;51.210;7.656;2023-07-13T05:21:06;152472.78;;;14.72;96.98
44926;BME280;30662;51.210;7.656;2023-07-13T05:23:35;152468.94;;;14.70;97.82
44926;BME280;30662;51.210;7.656;2023-07-13T05:26:03;152429.59;;;14.54;99.69
44926;BME280;30662;51.210;7.656;2023-07-13T05:28:34;152408.03;;;14.46;99.62
44926;BME280;30662;51.210;7.656;2023-07-13T05:31:01;152461.34;;;14.67;99.58
44926;BME280;30662;51.210;7.656;2023-07-13T05:33:28;152501.97;;;14.83;98.43
44926;BME280;30662;51.210;7.656;2023-07-13T05:35:54;152526.13;;;14.93;98.50
44926;BME280;30662;51.210;7.656;2023-07-13T05:38:21;152542.63;;;15.00;97.97
44926;BME280;30662;51.210;7.656;2023-07-13T05:40:49;152463.88;;;14.68;100.00
44926;BME280;30662;51.210;7.656;2023-07-13T05:43:16;152546.44;;;15.01;99.89
44926;BME280;30662;51.210;7.656;2023-07-13T05:45:42;152508.34;;;14.86;99.50
44926;BME280;30662;51.210;7.656;2023-07-13T05:48:09;152504.50;;;14.84;100.00
44926;BME280;30662;51.210;7.656;2023-07-13T05:50:36;152526.13;;;14.93;100.00
44926;BME280;30662;51.210;7.656;2023-07-13T05:53:02;152615.03;;;15.29;98.31
44926;BME280;30662;51.210;7.656;2023-07-13T05:55:29;152651.88;;;15.43;98.51
44926;BME280;30662;51.210;7.656;2023-07-13T05:57:56;152665.78;;;15.49;97.74
44926;BME280;30662;51.210;7.656;2023-07-13T06:00:24;152650.59;;;15.43;98.54
44926;BME280;30662;51.210;7.656;2023-07-13T06:02:52;152641.69;;;15.39;99.13
44926;BME280;30662;51.210;7.656;2023-07-13T06:05:19;152668.38;;;15.50;98.09
44926;BME280;30662;51.210;7.656;2023-07-13T06:07:45;152709.06;;;15.66;97.16
44926;BME280;30662;51.210;7.656;2023-07-13T06:10:12;152725.59;;;15.73;96.89
44926;BME280;30662;51.210;7.656;2023-07-13T06:12:38;152720.47;;;15.71;97.56
44926;BME280;30662;51.210;7.656;2023-07-13T06:15:07;152771.31;;;15.91;96.98
44926;BME280;30662;51.210;7.656;2023-07-13T06:17:33;152767.50;;;15.90;96.27
44926;BME280;30662;51.210;7.656;2023-07-13T06:20:00;152828.47;;;16.14;96.46
44926;BME280;30662;51.210;7.656;2023-07-13T06:22:27;152745.91;;;15.81;97.14
44926;BME280;30662;51.210;7.656;2023-07-13T06:24:53;152775.09;;;15.93;97.38
44926;BME280;30662;51.210;7.656;2023-07-13T06:27:20;152796.75;;;16.02;98.09
44926;BME280;30662;51.210;7.656;2023-07-13T06:29:47;152848.84;;;16.22;97.04
44926;BME280;30662;51.210;7.656;2023-07-13T06:32:13;152864.06;;;16.28;97.12
44926;BME280;30662;51.210;7.656;2023-07-13T06:34:40;152832.34;;;16.16;97.67
44926;BME280;30662;51.210;7.656;2023-07-13T06:37:09;152794.16;;;16.00;98.38
44926;BME280;30662;51.210;7.656;2023-07-13T06:39:36;152808.16;;;16.06;98.69
44926;BME280;30662;51.210;7.656;2023-07-13T06:42:02;152749.72;;;15.83;100.00
44926;BME280;30662;51.210;7.656;2023-07-13T06:44:29;152747.19;;;15.82;100.00
44926;BME280;30662;51.210;7.656;2023-07-13T06:46:56;152768.78;;;15.90;100.00
44926;BME280;30662;51.210;7.656;2023-07-13T06:49:22;152795.47;;;16.01;100.00
44926;BME280;30662;51.210;7.656;2023-07-13T06:51:49;152764.97;;;15.89;100.00
44926;BME280;30662;51.210;7.656;2023-07-13T06:54:15;152726.84;;;15.74;100.00
44926;BME280;30662;51.210;7.656;2023-07-13T06:56:42;152726.84;;;15.74;100.00
44926;BME280;30662;51.210;7.656;2023-07-13T06:59:08;152747.19;;;15.82;100.00
44926;BME280;30662;51.210;7.656;2023-07-13T07:01:35;152773.84;;;15.92;100.00
44926;BME280;30662;51.210;7.656;2023-07-13T07:04:05;152817.06;;;16.10;100.00
44926;BME280;30662;51.210;7.656;2023-07-13T07:06:32;152831.06;;;16.15;100.00
44926;BME280;30662;51.210;7.656;2023-07-13T07:08:58;152851.41;;;16.23;100.00
44926;BME280;30662;51.210;7.656;2023-07-13T07:11:25;152838.66;;;16.18;99.82
44926;BME280;30662;51.210;7.656;2023-07-13T07:13:53;152819.63;;;16.11;100.00
44926;BME280;30662;51.210;7.656;2023-07-13T07:16:20;152775.09;;;15.93;100.00
44926;BME280;30662;51.210;7.656;2023-07-13T07:18:48;152740.84;;;15.79;100.00
44926;BME280;30662;51.210;7.656;2023-07-13T07:21:15;152780.22;;;15.95;100.00
44926;BME280;30662;51.210;7.656;2023-07-13T07:23:42;152808.16;;;16.06;100.00
44926;BME280;30662;51.210;7.656;2023-07-13T07:26:09;152851.41;;;16.23;100.00
44926;BME280;30662;51.210;7.656;2023-07-13T07:28:36;152859.00;;;16.26;100.00
44926;BME280;30662;51.210;7.656;2023-07-13T07:31:06;152899.66;;;16.43;100.00
44926;BME280;30662;51.210;7.656;2023-07-13T07:33:35;152920.00;;;16.51;99.60
44926;BME280;30662;51.210;7.656;2023-07-13T07:36:02;152880.59;;;16.35;98.81
44926;BME280;30662;51.210;7.656;2023-07-13T07:38:32;152892.06;;;16.40;98.66
44926;BME280;30662;51.210;7.656;2023-07-13T07:41:02;152864.06;;;16.28;100.00
44926;BME280;30662;51.210;7.656;2023-07-13T07:43:32;152897.13;;;16.42;99.74
44926;BME280;30662;51.210;7.656;2023-07-13T07:45:58;152847.53;;;16.22;100.00
44926;BME280;30662;51.210;7.656;2023-07-13T07:48:28;152899.66;;;16.43;99.35
44926;BME280;30662;51.210;7.656;2023-07-13T07:50:55;152895.84;;;16.41;99.20
44926;BME280;30662;51.210;7.656;2023-07-13T07:53:21;152920.00;;;16.51;98.34
44926;BME280;30662;51.210;7.656;2023-07-13T07:55:49;152912.38;;;16.48;99.04
44926;BME280;30662;51.210;7.656;2023-07-13T07:58:18;152927.66;;;16.54;98.89
44926;BME280;30662;51.210;7.656;2023-07-13T08:00:48;152914.91;;;16.49;98.10
44926;BME280;30662;51.210;7.656;2023-07-13T08:03:17;152928.91;;;16.54;99.27
44926;BME280;30662;51.210;7.656;2023-07-13T08:05:46;152968.38;;;16.70;98.20
44926;BME280;30662;51.210;7.656;2023-07-13T08:08:34;152973.44;;;16.72;97.53
44926;BME280;30662;51.210;7.656;2023-07-13T08:11:08;152964.50;;;16.69;96.76
44926;BME280;30662;51.210;7.656;2023-07-13T08:13:37;152930.19;;;16.55;98.14
44926;BME280;30662;51.210;7.656;2023-07-13T08:16:05;152928.91;;;16.54;98.91
44926;BME280;30662;51.210;7.656;2023-07-13T08:18:32;152950.53;;;16.63;98.87
44926;BME280;30662;51.210;7.656;2023-07-13T08:21:05;152909.84;;;16.47;99.17
44926;BME280;30662;51.210;7.656;2023-07-13T08:23:33;152970.91;;;16.71;98.33
44926;BME280;30662;51.210;7.656;2023-07-13T08:26:00;153031.97;;;16.96;97.29
44926;BME280;30662;51.210;7.656;2023-07-13T08:28:28;153054.84;;;17.05;96.04
44926;BME280;30662;51.210;7.656;2023-07-13T08:30:55;153100.59;;;17.23;94.79
44926;BME280;30662;51.210;7.656;2023-07-13T08:33:26;153128.59;;;17.34;94.34
44926;BME280;30662;51.210;7.656;2023-07-13T08:35:52;153146.41;;;17.42;92.96
44926;BME280;30662;51.210;7.656;2023-07-13T08:38:19;153105.72;;;17.25;93.77
44926;BME280;30662;51.210;7.656;2023-07-13T08:40:51;153162.94;;;17.48;92.19
44926;BME280;30662;51.210;7.656;2023-07-13T08:43:26;153188.38;;;17.58;90.94
44926;BME280;30662;51.210;7.656;2023-07-13T08:45:58;153243.13;;;17.80;89.48
44926;BME280;30662;51.210;7.656;2023-07-13T08:48:36;153213.84;;;17.69;90.32
44926;BME280;30662;51.210;7.656;2023-07-13T08:51:15;153194.75;;;17.61;90.73
44926;BME280;30662;51.210;7.656;2023-07-13T08:53:49;153278.75;;;17.95;89.68
44926;BME280;30662;51.210;7.656;2023-07-13T08:56:21;153281.28;;;17.96;87.76
44926;BME280;30662;51.210;7.656;2023-07-13T08:58:53;153278.75;;;17.95;86.56
44926;BME280;30662;51.210;7.656;2023-07-13T09:01:51;153260.94;;;17.87;86.36
44926;BME280;30662;51.210;7.656;2023-07-13T09:04:46;153236.78;;;17.78;86.58
44926;BME280;30662;51.210;7.656;2023-07-13T09:12:47;153334.72;;;18.17;84.86
44926;BME280;30662;51.210;7.656;2023-07-13T09:17:55;153271.13;;;17.91;86.05
44926;BME280;30662;51.210;7.656;2023-07-13T09:20:34;153358.94;;;18.27;84.48
44926;BME280;30662;51.210;7.656;2023-07-13T09:23:09;153260.94;;;17.87;84.93
44926;BME280;30662;51.210;7.656;2023-07-13T09:25:37;153193.47;;;17.60;84.17
44926;BME280;30662;51.210;7.656;2023-07-13T09:28:28;153229.16;;;17.75;86.34
44926;BME280;30662;51.210;7.656;2023-07-13T09:31:05;153258.38;;;17.86;85.91
44926;BME280;30662;51.210;7.656;2023-07-13T09:33:32;153264.78;;;17.89;84.25
44926;BME280;30662;51.210;7.656;2023-07-13T09:36:04;153198.56;;;17.62;86.02
44926;BME280;30662;51.210;7.656;2023-07-13T09:38:44;153213.84;;;17.69;85.69
44926;BME280;30662;51.210;7.656;2023-07-13T09:41:21;153266.06;;;17.89;85.41
44926;BME280;30662;51.210;7.656;2023-07-13T09:44:11;153356.41;;;18.26;81.43
44926;BME280;30662;51.210;7.656;2023-07-13T09:46:52;153413.66;;;18.49;80.19
44926;BME280;30662;51.210;7.656;2023-07-13T09:49:28;153509.19;;;18.87;80.71
44926;BME280;30662;51.210;7.656;2023-07-13T09:52:03;153561.38;;;19.08;77.74
44926;BME280;30662;51.210;7.656;2023-07-13T09:54:34;153570.28;;;19.11;77.47
44926;BME280;30662;51.210;7.656;2023-07-13T09:57:03;153619.94;;;19.31;77.86
44926;BME280;30662;51.210;7.656;2023-07-13T09:59:39;153649.25;;;19.43;77.12
44926;BME280;30662;51.210;7.656;2023-07-13T10:05:04;153473.53;;;18.72;78.41
44926;BME280;30662;51.210;7.656;2023-07-13T10:07:32;153505.38;;;18.85;77.93
44926;BME280;30662;51.210;7.656;2023-07-13T10:10:17;153543.56;;;19.00;77.81
44926;BME280;30662;51.210;7.656;2023-07-13T10:12:44;153585.56;;;19.17;77.30
44926;BME280;30662;51.210;7.656;2023-07-13T10:15:19;153518.09;;;18.90;79.39
44926;BME280;30662;51.210;7.656;2023-07-13T10:17:52;153448.03;;;18.62;78.01
44926;BME280;30662;51.210;7.656;2023-07-13T10:20:20;153487.53;;;18.78;78.65
44926;BME280;30662;51.210;7.656;2023-07-13T10:23:05;153471.00;;;18.71;76.83
44926;BME280;30662;51.210;7.656;2023-07-13T10:25:39;153490.09;;;18.79;76.62
44926;BME280;30662;51.210;7.656;2023-07-13T10:30:58;153667.09;;;19.50;73.95
44926;BME280;30662;51.210;7.656;2023-07-13T10:33:26;153585.56;;;19.17;74.10
44926;BME280;30662;51.210;7.656;2023-07-13T10:36:01;153566.47;;;19.10;73.38
44926;BME280;30662;51.210;7.656;2023-07-13T10:38:30;153474.78;;;18.73;75.93
44926;BME280;30662;51.210;7.656;2023-07-13T10:41:01;153412.41;;;18.48;74.98
44926;BME280;30662;51.210;7.656;2023-07-13T10:43:39;153416.19;;;18.50;75.71
44926;BME280;30662;51.210;7.656;2023-07-13T10:46:11;153492.63;;;18.80;75.62
44926;BME280;30662;51.210;7.656;2023-07-13T10:48:40;153555.03;;;19.05;73.50
44926;BME280;30662;51.210;7.656;2023-07-13T10:51:10;153555.03;;;19.05;74.34
44926;BME280;30662;51.210;7.656;2023-07-13T10:53:39;153528.28;;;18.94;75.11
44926;BME280;30662;51.210;7.656;2023-07-13T10:56:29;153512.97;;;18.88;74.72
44926;BME280;30662;51.210;7.656;2023-07-13T10:59:31;153572.84;;;19.12;72.90
44926;BME280;30662;51.210;7.656;2023-07-13T11:04:29;153623.75;;;19.33;68.10
44926;BME280;30662;51.210;7.656;2023-07-13T11:07:20;153668.34;;;19.50;67.36
44926;BME280;30662;51.210;7.656;2023-07-13T11:09:53;153605.94;;;19.25;69.58
44926;BME280;30662;51.210;7.656;2023-07-13T11:22:51;153692.59;;;19.60;69.55
44926;BME280;30662;51.210;7.656;2023-07-13T11:25:27;153667.09;;;19.50;70.47
44926;BME280;30662;51.210;7.656;2023-07-13T11:30:48;153755.03;;;19.85;68.18
44926;BME280;30662;51.210;7.656;2023-07-13T11:36:15;153947.47;;;20.62;66.72
44926;BME280;30662;51.210;7.656;2023-07-13T11:38:44;154073.66;;;21.12;63.63
44926;BME280;30662;51.210;7.656;2023-07-13T11:41:21;154006.09;;;20.85;64.27
44926;BME280;30662;51.210;7.656;2023-07-13T11:43:49;154001.00;;;20.83;62.72
44926;BME280;30662;51.210;7.656;2023-07-13T11:46:22;153855.66;;;20.25;66.00
44926;BME280;30662;51.210;7.656;2023-07-13T11:48:50;153947.47;;;20.62;63.91
44926;BME280;30662;51.210;7.656;2023-07-13T11:51:31;153909.22;;;20.47;63.78
44926;BME280;30662;51.210;7.656;2023-07-13T11:54:03;153879.84;;;20.35;64.62
44926;BME280;30662;51.210;7.656;2023-07-13T11:56:30;153862.00;;;20.28;66.27
44926;BME280;30662;51.210;7.656;2023-07-13T11:59:05;153779.22;;;19.95;67.54
44926;BME280;30662;51.210;7.656;2023-07-13T12:01:33;153784.31;;;19.97;67.63
44926;BME280;30662;51.210;7.656;2023-07-13T12:04:03;153818.72;;;20.10;65.68
44926;BME280;30662;51.210;7.656;2023-07-13T12:06:32;153802.13;;;20.04;65.46
44926;BME280;30662;51.210;7.656;2023-07-13T12:09:00;153922.00;;;20.52;64.33
44926;BME280;30662;51.210;7.656;2023-07-13T12:11:30;154071.13;;;21.11;62.07
44926;BME280;30662;51.210;7.656;2023-07-13T12:13:57;154027.78;;;20.94;59.23
44926;BME280;30662;51.210;7.656;2023-07-13T12:16:29;154034.16;;;20.97;60.42
44926;BME280;30662;51.210;7.656;2023-07-13T12:18:57;153876.03;;;20.33;63.87
44926;BME280;30662;51.210;7.656;2023-07-13T12:21:37;153848.03;;;20.22;63.75
44926;BME280;30662;51.210;7.656;2023-07-13T12:24:04;153802.13;;;20.04;64.20
44926;BME280;30662;51.210;7.656;2023-07-13T12:26:39;153876.03;;;20.33;61.55
44926;BME280;30662;51.210;7.656;2023-07-13T12:29:07;154017.56;;;20.90;60.02
44926;BME280;30662;51.210;7.656;2023-07-13T12:31:36;154007.41;;;20.86;59.51
44926;BME280;30662;51.210;7.656;2023-07-13T12:36:37;154284.16;;;21.96;57.43
44926;BME280;30662;51.210;7.656;2023-07-13T12:39:12;154282.88;;;21.96;55.92
44926;BME280;30662;51.210;7.656;2023-07-13T12:41:39;154124.72;;;21.33;56.47
44926;BME280;30662;51.210;7.656;2023-07-13T12:44:18;154117.09;;;21.30;56.67
44926;BME280;30662;51.210;7.656;2023-07-13T12:47:19;154109.38;;;21.27;55.58
44926;BME280;30662;51.210;7.656;2023-07-13T12:49:53;154120.91;;;21.31;55.55
44926;BME280;30662;51.210;7.656;2023-07-13T12:52:23;154171.94;;;21.52;56.39
44926;BME280;30662;51.210;7.656;2023-07-13T12:54:58;154012.50;;;20.88;58.33
44926;BME280;30662;51.210;7.656;2023-07-13T12:57:38;154045.66;;;21.01;59.79
44926;BME280;30662;51.210;7.656;2023-07-13T13:02:49;153900.28;;;20.43;62.24
44926;BME280;30662;51.210;7.656;2023-07-13T13:05:17;153993.38;;;20.80;61.90
44926;BME280;30662;51.210;7.656;2023-07-13T13:07:44;154055.81;;;21.05;59.44
44926;BME280;30662;51.210;7.656;2023-07-13T13:10:14;154159.16;;;21.46;56.77
44926;BME280;30662;51.210;7.656;2023-07-13T13:12:41;154350.50;;;22.23;54.33
44926;BME280;30662;51.210;7.656;2023-07-13T13:15:10;154346.69;;;22.21;52.53
44926;BME280;30662;51.210;7.656;2023-07-13T13:17:38;154359.47;;;22.26;52.07
44926;BME280;30662;51.210;7.656;2023-07-13T13:20:14;154367.09;;;22.29;52.21
44926;BME280;30662;51.210;7.656;2023-07-13T13:22:42;154376.06;;;22.33;49.91
44926;BME280;30662;51.210;7.656;2023-07-13T13:25:13;154400.28;;;22.43;49.48
44926;BME280;30662;51.210;7.656;2023-07-13T13:27:41;154337.78;;;22.18;50.87
44926;BME280;30662;51.210;7.656;2023-07-13T13:30:16;154378.59;;;22.34;50.46
44926;BME280;30662;51.210;7.656;2023-07-13T13:32:46;154416.88;;;22.49;50.77
44926;BME280;30662;51.210;7.656;2023-07-13T13:35:15;154377.31;;;22.34;51.48
44926;BME280;30662;51.210;7.656;2023-07-13T13:37:42;154425.81;;;22.53;51.79
44926;BME280;30662;51.210;7.656;2023-07-13T13:40:17;154489.59;;;22.78;50.97
44926;BME280;30662;51.210;7.656;2023-07-13T13:42:44;154430.91;;;22.55;51.08